Time;durP1;ratioP1;P1;durP2;ratioP2;P2;SDS_P1;SDS_P2;PMS_P1;PMS_P2;Temp;Humidity;BMP_temperature;BMP_pressure;BME280_temperature;BME280_humidity;BME280_pressure;Samples;Min_cycle;Max_cycle;Signal;HPM_P1;HPM_P2
2022/10/03 00:01:19;;;;;;;9.30;5.93;;;;;;;9.59;100.00;98171.25;5019128;28;20041;-62
2022/10/03 00:04:04;;;;;;;8.15;5.55;;;;;;;9.54;100.00;98173.81;5017955;28;20069;-62
2022/10/03 00:06:51;;;;;;;10.27;5.63;;;;;;;9.58;100.00;98186.63;5018485;28;20041;-62
2022/10/03 00:09:28;;;;;;;8.73;5.57;;;;;;;9.61;100.00;98190.75;5025100;28;20124;-63
2022/10/03 00:12:13;;;;;;;12.32;7.00;;;;;;;9.65;100.00;98191.97;5025965;28;20041;-62
2022/10/03 00:14:48;;;;;;;11.60;6.30;;;;;;;9.71;100.00;98201.06;5025935;28;20035;-62
2022/10/03 00:17:52;;;;;;;10.00;6.65;;;;;;;9.74;100.00;98206.81;5024882;28;20042;-62
2022/10/03 00:20:45;;;;;;;13.27;6.72;;;;;;;9.78;100.00;98207.22;5023383;28;20084;-63
2022/10/03 00:23:22;;;;;;;9.38;6.25;;;;;;;9.77;100.00;98192.06;5024265;28;20037;-63
2022/10/03 00:26:25;;;;;;;13.23;7.68;;;;;;;9.79;100.00;98197.22;5023903;28;20156;-62
2022/10/03 00:29:19;;;;;;;14.15;7.93;;;;;;;9.81;100.00;98198.66;5017970;28;20041;-62
2022/10/03 00:31:55;;;;;;;11.23;7.60;;;;;;;9.83;100.00;98196.53;5015178;28;20041;-62
2022/10/03 00:34:33;;;;;;;12.57;7.65;;;;;;;9.85;100.00;98202.53;5032734;28;20033;-62
2022/10/03 00:37:31;;;;;;;12.10;7.22;;;;;;;9.83;100.00;98214.63;5031811;28;20133;-62
2022/10/03 00:40:31;;;;;;;10.65;7.50;;;;;;;9.82;100.00;98218.41;5032270;28;20128;-63
2022/10/03 00:43:16;;;;;;;10.63;7.13;;;;;;;9.84;100.00;98217.13;5032089;28;20045;-62
2022/10/03 00:46:03;;;;;;;11.20;7.55;;;;;;;9.90;100.00;98220.81;5032039;28;20052;-62
2022/10/03 00:49:07;;;;;;;9.93;7.47;;;;;;;9.91;100.00;98214.34;5030444;28;20531;-63
2022/10/03 00:52:19;;;;;;;11.05;7.75;;;;;;;9.91;100.00;98217.03;5031354;28;20423;-63
2022/10/03 00:55:12;;;;;;;12.75;7.45;;;;;;;9.96;100.00;98219.91;5031634;28;20037;-63
2022/10/03 00:58:03;;;;;;;11.52;7.82;;;;;;;9.89;100.00;98222.66;5032470;28;20152;-62
2022/10/03 01:00:33;;;;;;;10.98;7.75;;;;;;;9.88;100.00;98223.72;5027368;28;20040;-62
2022/10/03 01:03:18;;;;;;;11.50;7.72;;;;;;;9.87;100.00;98223.94;5031627;28;20444;-62
2022/10/03 01:06:13;;;;;;;10.30;7.80;;;;;;;9.86;100.00;98216.91;5031702;28;20037;-62
2022/10/03 01:09:05;;;;;;;15.27;8.32;;;;;;;9.85;100.00;98202.53;5031646;28;20518;-62
2022/10/03 01:12:00;;;;;;;11.52;7.20;;;;;;;9.86;100.00;98212.31;5029643;28;20111;-62
2022/10/03 01:14:51;;;;;;;12.57;7.43;;;;;;;9.89;100.00;98208.34;5029652;28;20132;-62
2022/10/03 01:17:30;;;;;;;18.42;8.73;;;;;;;9.89;100.00;98213.75;5011876;28;20061;-62
2022/10/03 01:24:15;;;;;;;11.30;7.40;;;;;;;9.83;100.00;98220.88;5022725;28;20037;-63
2022/10/03 01:26:51;;;;;;;;;;;;;;;9.82;100.00;98224.66;5030862;28;20554;-63
2022/10/03 01:32:20;;;;;;;14.57;8.60;;;;;;;9.78;100.00;98222.63;5031155;28;20136;-62
2022/10/03 01:34:53;;;;;;;12.75;7.88;;;;;;;9.88;100.00;98231.03;5031402;28;20128;-63
2022/10/03 01:37:28;;;;;;;14.02;8.50;;;;;;;9.75;100.00;98224.72;5030468;28;20483;-62
2022/10/03 01:40:25;;;;;;;13.95;8.00;;;;;;;9.79;100.00;98237.78;5022537;28;20419;-62
2022/10/03 01:43:03;;;;;;;12.93;7.40;;;;;;;9.83;100.00;98239.81;5028080;28;20497;-62
2022/10/03 01:45:42;;;;;;;11.40;6.90;;;;;;;9.93;100.00;98247.41;5027984;28;20177;-62
2022/10/03 01:48:20;;;;;;;18.60;9.25;;;;;;;9.83;100.00;98250.63;5028153;28;20120;-63
2022/10/03 01:50:58;;;;;;;13.90;9.20;;;;;;;9.83;100.00;98247.09;5028441;28;20376;-63
2022/10/03 01:53:37;;;;;;;18.10;8.95;;;;;;;9.82;100.00;98248.16;5027892;28;20129;-62
2022/10/03 01:56:20;;;;;;;13.80;7.93;;;;;;;9.87;100.00;98249.13;5028113;28;20099;-63
2022/10/03 01:59:17;;;;;;;16.38;8.77;;;;;;;9.92;100.00;98251.19;5028772;28;20120;-62
2022/10/03 02:01:51;;;;;;;12.70;8.30;;;;;;;9.95;100.00;98261.53;5027244;28;20044;-63
2022/10/03 02:04:35;;;;;;;16.08;8.70;;;;;;;9.93;100.00;98254.69;5026533;28;20046;-63
2022/10/03 02:07:27;;;;;;;10.73;7.75;;;;;;;9.93;100.00;98258.22;5027391;28;20049;-63
2022/10/03 02:10:28;;;;;;;15.02;8.40;;;;;;;9.86;100.00;98262.88;5027882;28;20060;-62
2022/10/03 02:13:29;;;;;;;15.93;7.60;;;;;;;9.87;100.00;98254.56;5025873;28;20045;-62
2022/10/03 02:16:30;;;;;;;16.27;8.23;;;;;;;9.80;100.00;98253.78;5032312;28;20488;-63
2022/10/03 02:19:09;;;;;;;13.50;7.80;;;;;;;9.84;100.00;98243.38;5025780;28;20062;-62
2022/10/03 02:21:46;;;;;;;12.80;8.27;;;;;;;9.76;100.00;98244.47;5026709;28;20065;-62
2022/10/03 02:24:13;;;;;;;13.85;7.78;;;;;;;9.72;100.00;98248.69;5022236;28;20125;-62
2022/10/03 02:27:06;;;;;;;23.27;9.07;;;;;;;9.70;100.00;98248.91;5027423;28;20416;-62
2022/10/03 02:30:02;;;;;;;14.23;8.00;;;;;;;9.58;100.00;98265.03;5024964;28;20728;-62
2022/10/03 02:32:57;;;;;;;12.38;8.32;;;;;;;9.59;100.00;98265.88;5026536;28;20045;-62
2022/10/03 02:36:01;;;;;;;15.43;8.00;;;;;;;9.59;100.00;98263.97;5026316;28;20410;-62
2022/10/03 02:38:52;;;;;;;16.27;8.95;;;;;;;9.50;100.00;98260.75;5008352;28;20069;-63
2022/10/03 02:41:27;;;;;;;14.25;8.93;;;;;;;9.42;100.00;98265.63;5019720;28;20060;-62
2022/10/03 02:44:15;;;;;;;16.50;9.00;;;;;;;9.37;100.00;98255.47;5026495;28;20112;-62
2022/10/03 02:47:09;;;;;;;16.92;9.65;;;;;;;9.25;100.00;98266.16;5026952;28;20041;-62
2022/10/03 02:50:13;;;;;;;14.63;9.25;;;;;;;9.28;100.00;98262.22;5027263;28;20383;-62
2022/10/03 02:52:50;;;;;;;18.27;9.93;;;;;;;9.18;100.00;98258.13;5024873;28;20120;-62
2022/10/03 02:55:47;;;;;;;14.35;8.05;;;;;;;9.08;100.00;98257.81;5025785;28;20038;-62
2022/10/03 02:58:55;;;;;;;12.98;8.27;;;;;;;8.96;100.00;98252.28;5021969;28;20132;-62
2022/10/03 03:01:53;;;;;;;16.30;8.90;;;;;;;8.83;100.00;98251.34;5024836;28;20431;-62
2022/10/03 03:04:30;;;;;;;12.63;7.28;;;;;;;8.77;100.00;98240.59;5026530;28;20117;-62
2022/10/03 03:07:30;;;;;;;13.60;7.53;;;;;;;8.74;100.00;98247.25;5026427;28;20283;-62
2022/10/03 03:10:37;;;;;;;12.52;7.85;;;;;;;8.56;100.00;98240.72;5027175;28;20067;-62
2022/10/03 03:13:28;;;;;;;14.95;8.55;;;;;;;8.53;100.00;98248.41;5015353;28;20076;-62
2022/10/03 03:16:25;;;;;;;15.27;6.60;;;;;;;8.48;100.00;98242.81;5015705;28;20049;-62
2022/10/03 03:18:58;;;;;;;17.65;7.55;;;;;;;8.42;100.00;98253.44;5024576;28;20049;-62
2022/10/03 03:21:37;;;;;;;12.02;7.78;;;;;;;8.44;100.00;98251.34;5025870;28;20133;-62
2022/10/03 03:24:25;;;;;;;16.58;8.63;;;;;;;8.35;100.00;98243.72;5027058;28;20037;-62
2022/10/03 03:27:22;;;;;;;11.23;7.43;;;;;;;8.29;100.00;98238.13;5026634;28;20748;-62
2022/10/03 03:29:58;;;;;;;15.27;7.28;;;;;;;8.32;100.00;98248.50;5022607;28;20397;-62
2022/10/03 03:32:55;;;;;;;13.35;7.63;;;;;;;8.39;100.00;98251.16;5017767;28;20576;-62
2022/10/03 03:35:45;;;;;;;16.25;7.63;;;;;;;8.32;100.00;98248.50;5026091;28;20544;-62
2022/10/03 03:38:20;;;;;;;11.77;7.32;;;;;;;8.14;100.00;98248.41;5025997;28;20548;-62
2022/10/03 03:41:02;;;;;;;18.67;7.72;;;;;;;7.89;100.00;98244.53;5022584;28;20783;-62
2022/10/03 03:43:44;;;;;;;12.00;6.97;;;;;;;7.96;100.00;98241.00;5026721;28;20121;-62
2022/10/03 03:46:29;;;;;;;11.30;6.47;;;;;;;7.87;100.00;98243.94;5026230;28;20037;-62
2022/10/03 03:49:07;;;;;;;63.75;9.05;;;;;;;7.61;100.00;98245.66;5026292;28;20080;-62
2022/10/03 03:51:48;;;;;;;15.23;7.63;;;;;;;7.79;100.00;98254.94;5005871;28;20056;-62
2022/10/03 03:54:51;;;;;;;26.88;9.27;;;;;;;7.85;100.00;98264.06;5021847;28;20048;-62
2022/10/03 03:57:31;;;;;;;16.38;8.75;;;;;;;7.80;100.00;98264.69;5025397;28;20132;-62
2022/10/03 04:00:15;;;;;;;14.98;7.63;;;;;;;7.86;100.00;98269.25;5025903;28;20051;-62
2022/10/03 04:02:56;;;;;;;21.02;9.07;;;;;;;7.89;100.00;98271.50;5026227;28;20183;-62
2022/10/03 04:05:49;;;;;;;19.25;8.43;;;;;;;7.76;100.00;98274.22;5025282;28;20044;-62
2022/10/03 04:08:36;;;;;;;15.10;7.40;;;;;;;7.65;100.00;98271.16;5026104;28;20076;-62
2022/10/03 04:11:18;;;;;;;14.45;7.75;;;;;;;7.84;100.00;98273.16;5024577;28;20140;-62
2022/10/03 04:13:53;;;;;;;16.00;8.23;;;;;;;7.81;100.00;98271.72;5012077;28;20069;-62
2022/10/03 04:19:50;;;;;;;12.27;7.03;;;;;;;7.81;100.00;98277.97;5024145;28;20045;-62
2022/10/03 04:22:56;;;;;;;20.15;9.38;;;;;;;7.57;100.00;98273.25;5024507;28;20049;-62
2022/10/03 04:25:45;;;;;;;16.48;7.72;;;;;;;7.59;100.00;98269.28;5023999;28;20088;-62
2022/10/03 04:28:49;;;;;;;17.35;8.25;;;;;;;7.64;100.00;98279.44;5023401;28;20305;-62
2022/10/03 04:31:15;;;;;;;16.48;7.90;;;;;;;7.63;100.00;98283.19;5021783;28;20053;-62
2022/10/03 04:34:06;;;;;;;23.75;7.88;;;;;;;7.72;100.00;98290.00;5025690;28;20045;-62
2022/10/03 04:36:52;;;;;;;15.53;6.90;;;;;;;7.61;100.00;98288.78;5023171;28;20124;-62
2022/10/03 04:39:33;;;;;;;20.20;9.18;;;;;;;7.64;100.00;98293.78;5006493;28;20125;-62
2022/10/03 04:42:22;;;;;;;15.07;7.35;;;;;;;7.61;100.00;98286.09;5024603;28;20148;-62
2022/10/03 04:45:00;;;;;;;19.58;8.60;;;;;;;7.60;100.00;98289.84;5017910;28;20148;-62
2022/10/03 04:47:49;;;;;;;20.65;9.05;;;;;;;7.59;100.00;98293.53;5024179;28;20045;-62
2022/10/03 04:50:37;;;;;;;20.23;9.07;;;;;;;7.70;100.00;98288.56;5022568;28;20145;-62
2022/10/03 04:53:24;;;;;;;24.70;9.02;;;;;;;7.74;100.00;98292.50;5017999;28;20448;-62
2022/10/03 04:56:16;;;;;;;22.77;8.10;;;;;;;7.61;100.00;98302.25;5021822;28;20120;-62
2022/10/03 04:59:19;;;;;;;20.85;8.32;;;;;;;7.64;100.00;98298.31;5018198;28;20091;-62
2022/10/03 05:01:54;;;;;;;27.95;10.88;;;;;;;7.78;100.00;98302.63;5022616;28;20564;-62
2022/10/03 05:04:28;;;;;;;42.00;10.73;;;;;;;7.81;100.00;98307.63;5024720;28;20045;-62
2022/10/03 05:07:13;;;;;;;29.30;9.82;;;;;;;7.85;100.00;98304.50;5019406;28;20480;-62
2022/10/03 05:09:54;;;;;;;30.92;10.00;;;;;;;7.92;100.00;98303.44;5023494;28;20041;-62
2022/10/03 05:12:31;;;;;;;24.83;10.65;;;;;;;7.98;100.00;98304.47;5023903;28;20063;-62
2022/10/03 05:15:09;;;;;;;28.73;9.70;;;;;;;8.07;100.00;98300.50;5024799;28;20048;-62
2022/10/03 05:17:47;;;;;;;21.50;9.27;;;;;;;8.13;100.00;98303.38;5013948;28;20091;-62
2022/10/03 05:20:32;;;;;;;28.42;10.00;;;;;;;8.37;100.00;98307.22;5027971;28;20056;-62
2022/10/03 05:23:28;;;;;;;34.13;10.60;;;;;;;8.39;100.00;98310.53;5028414;28;20116;-62
2022/10/03 05:26:10;;;;;;;28.02;10.18;;;;;;;8.35;100.00;98316.56;5027782;28;20120;-62
2022/10/03 05:29:08;;;;;;;28.80;9.98;;;;;;;8.43;100.00;98325.25;5027684;28;20041;-62
2022/10/03 05:32:17;;;;;;;28.33;9.80;;;;;;;8.57;100.00;98326.06;5027642;28;20491;-62
2022/10/03 05:34:55;;;;;;;25.48;9.50;;;;;;;8.54;100.00;98339.97;5005822;28;20044;-62
2022/10/03 05:37:24;;;;;;;25.38;9.90;;;;;;;8.41;100.00;98337.31;5027818;28;20979;-62
2022/10/03 05:39:58;;;;;;;21.13;9.38;;;;;;;8.46;100.00;98340.19;5026847;28;20038;-62
2022/10/03 05:42:35;;;;;;;25.05;9.18;;;;;;;8.61;100.00;98350.75;5022095;28;20141;-64
2022/10/03 05:45:29;;;;;;;27.23;10.02;;;;;;;8.68;100.00;98350.72;5025248;28;20354;-63
2022/10/03 05:48:12;;;;;;;26.13;9.88;;;;;;;8.61;100.00;98350.75;5020206;28;20087;-63
2022/10/03 05:51:12;;;;;;;19.90;8.95;;;;;;;8.73;100.00;98352.78;5019142;28;20419;-64
2022/10/03 05:54:03;;;;;;;23.52;9.90;;;;;;;8.67;100.00;98352.56;5015216;28;20409;-64
2022/10/03 05:56:34;;;;;;;27.83;9.55;;;;;;;8.70;100.00;98352.16;5024532;28;20041;-63
2022/10/03 05:59:25;;;;;;;29.15;11.82;;;;;;;8.74;100.00;98351.72;5025567;28;20057;-63
2022/10/03 06:02:12;;;;;;;20.75;9.73;;;;;;;8.83;100.00;98353.97;5023710;28;20044;-63
2022/10/03 06:04:58;;;;;;;28.00;10.93;;;;;;;8.86;100.00;98350.00;5023414;28;20046;-63
2022/10/03 06:07:39;;;;;;;29.52;11.25;;;;;;;8.98;100.00;98355.53;5023547;28;20045;-63
2022/10/03 06:10:06;;;;;;;;;;;;;;;9.02;100.00;98351.34;5020170;28;20144;-63
2022/10/03 06:12:54;;;;;;;27.95;13.88;;;;;;;8.99;100.00;98357.19;5024708;28;19936;-63
2022/10/03 06:15:38;;;;;;;36.50;13.80;;;;;;;9.02;100.00;98355.91;5025272;28;20136;-63
2022/10/03 06:18:30;;;;;;;27.63;12.52;;;;;;;9.14;100.00;98359.59;5023844;28;20630;-63
2022/10/03 06:21:22;;;;;;;36.67;15.80;;;;;;;9.28;100.00;98363.03;5027562;28;20132;-63
2022/10/03 06:24:24;;;;;;;33.90;15.07;;;;;;;9.32;100.00;98363.44;5021713;28;21642;-64
2022/10/03 06:27:16;;;;;;;28.15;15.15;;;;;;;9.36;100.00;98364.63;5020025;28;20449;-64
2022/10/03 06:29:55;;;;;;;30.98;14.13;;;;;;;9.25;100.00;98355.34;5022885;28;20041;-64
2022/10/03 06:32:24;;;;;;;34.45;14.15;;;;;;;9.31;100.00;98359.91;5026475;28;20128;-64
2022/10/03 06:35:28;;;;;;;42.08;15.13;;;;;;;9.49;100.00;98363.72;5026826;28;20033;-64
2022/10/03 06:38:24;;;;;;;32.28;14.23;;;;;;;9.52;100.00;98363.28;5026068;28;20120;-64
2022/10/03 06:41:21;;;;;;;30.73;15.32;;;;;;;9.57;100.00;98368.00;5029033;28;20029;-63
2022/10/03 06:44:10;;;;;;;29.65;15.02;;;;;;;9.56;100.00;98363.66;5032068;28;20116;-63
2022/10/03 06:47:15;;;;;;;30.15;15.32;;;;;;;9.61;100.00;98370.06;5019081;28;20439;-63
2022/10/03 06:50:07;;;;;;;27.98;15.25;;;;;;;9.64;100.00;98366.09;5014269;28;20430;-63
2022/10/03 06:52:57;;;;;;;29.90;15.68;;;;;;;9.60;100.00;98365.72;5023681;28;20136;-63
2022/10/03 06:55:26;;;;;;;29.27;13.38;;;;;;;9.70;100.00;98362.47;5007288;28;20565;-63
2022/10/03 06:58:19;;;;;;;22.00;12.27;;;;;;;9.68;100.00;98370.00;5013427;28;20602;-63
2022/10/03 07:01:11;;;;;;;26.15;13.68;;;;;;;9.78;100.00;98377.63;5026444;28;20052;-63
2022/10/03 07:03:43;;;;;;;28.88;14.18;;;;;;;9.82;100.00;98373.41;5025120;28;20080;-64
2022/10/03 07:06:50;;;;;;;28.88;13.68;;;;;;;9.81;100.00;98379.03;5027610;28;20808;-64
2022/10/03 07:09:28;;;;;;;28.13;12.93;;;;;;;9.85;100.00;98380.25;5023815;28;20052;-64
2022/10/03 07:12:00;;;;;;;25.98;12.27;;;;;;;9.89;100.00;98379.56;5026689;28;20132;-64
2022/10/03 07:14:55;;;;;;;23.67;13.88;;;;;;;9.96;100.00;98386.81;5026281;28;20041;-64
2022/10/03 07:17:46;;;;;;;26.27;13.63;;;;;;;10.02;100.00;98386.75;5026711;28;20146;-64
2022/10/03 07:20:25;;;;;;;21.58;11.60;;;;;;;9.95;100.00;98387.88;5025692;28;20048;-64
2022/10/03 07:23:18;;;;;;;20.98;12.05;;;;;;;10.10;100.00;98390.22;5026747;28;20555;-64
2022/10/03 07:26:22;;;;;;;19.52;11.30;;;;;;;10.18;100.00;98386.38;5035064;28;20057;-64
2022/10/03 07:29:14;;;;;;;24.27;12.18;;;;;;;10.28;100.00;98390.22;5009669;28;20156;-64
2022/10/03 07:31:53;;;;;;;18.02;10.05;;;;;;;10.36;100.00;98396.41;5015637;28;20046;-63
2022/10/03 07:34:44;;;;;;;21.15;11.60;;;;;;;10.38;100.00;98389.72;5023659;28;20591;-64
2022/10/03 07:40:15;;;;;;;18.30;10.65;;;;;;;10.35;100.00;98383.91;5019982;28;20124;-63
2022/10/03 07:42:51;;;;;;;25.33;11.85;;;;;;;10.34;100.00;98388.50;5021388;28;20042;-64
2022/10/03 07:46:05;;;;;;;20.27;11.77;;;;;;;10.33;100.00;98394.13;5022731;28;20038;-64
2022/10/03 07:48:31;;;;;;;19.52;11.88;;;;;;;10.37;100.00;98390.78;5023151;28;20037;-63
2022/10/03 07:51:16;;;;;;;24.50;11.85;;;;;;;10.43;100.00;98394.44;5011651;28;20041;-63
2022/10/03 07:54:07;;;;;;;19.55;10.98;;;;;;;10.47;100.00;98390.25;5018353;28;20063;-64
2022/10/03 07:57:15;;;;;;;18.23;11.45;;;;;;;10.54;100.00;98395.59;5022354;28;20577;-63
2022/10/03 08:00:06;;;;;;;18.40;10.57;;;;;;;10.63;100.00;98385.28;5022741;28;20757;-63
2022/10/03 08:02:46;;;;;;;18.42;11.48;;;;;;;10.60;100.00;98391.16;5017647;28;20046;-64
2022/10/03 08:05:22;;;;;;;16.75;9.48;;;;;;;10.61;100.00;98401.75;5022112;28;20049;-63
2022/10/03 08:08:31;;;;;;;15.38;8.63;;;;;;;10.61;100.00;98403.66;5019525;28;20397;-63
2022/10/03 08:11:34;;;;;;;21.30;9.85;;;;;;;10.48;100.00;98407.34;5019715;28;20041;-63
2022/10/03 08:14:19;;;;;;;17.45;10.13;;;;;;;10.53;100.00;98407.47;5015099;28;20049;-63
2022/10/03 08:17:14;;;;;;;20.75;11.38;;;;;;;10.44;100.00;98412.38;5021673;28;20128;-63
2022/10/03 08:19:59;;;;;;;18.35;11.23;;;;;;;10.38;100.00;98418.66;5021379;28;20044;-63
2022/10/03 08:22:38;;;;;;;21.40;12.50;;;;;;;10.63;100.00;98415.91;5019580;28;20460;-63
2022/10/03 08:25:14;;;;;;;16.95;10.35;;;;;;;10.75;100.00;98412.44;5023870;28;20165;-63
2022/10/03 08:28:02;;;;;;;16.73;10.50;;;;;;;10.78;100.00;98417.41;5014923;28;20042;-63
2022/10/03 08:30:52;;;;;;;20.60;10.88;;;;;;;10.64;100.00;98414.03;5022733;28;20696;-63
2022/10/03 08:33:52;;;;;;;22.40;11.50;;;;;;;10.74;100.00;98417.03;5028243;28;20111;-63
2022/10/03 08:36:31;;;;;;;19.15;11.93;;;;;;;10.76;100.00;98414.91;5002110;28;20132;-63
2022/10/03 08:38:57;;;;;;;16.83;11.35;;;;;;;10.78;100.00;98418.25;5020640;28;20045;-63
2022/10/03 08:41:53;;;;;;;19.15;10.52;;;;;;;10.95;100.00;98425.75;5019457;28;20501;-64
2022/10/03 08:44:53;;;;;;;20.80;9.98;;;;;;;10.97;100.00;98420.06;5021745;28;20128;-63
2022/10/03 08:47:45;;;;;;;17.70;10.05;;;;;;;10.91;100.00;98417.22;5022228;28;20064;-63
2022/10/03 08:50:12;;;;;;;;;;;;;;;10.91;100.00;98413.72;5022203;28;20120;-63
2022/10/03 08:52:44;;;;;;;15.93;9.05;;;;;;;11.07;99.90;98414.94;5022891;28;20384;-63
2022/10/03 08:55:13;;;;;;;17.17;8.98;;;;;;;10.98;99.34;98414.44;5024776;28;20131;-63
2022/10/03 08:58:01;;;;;;;18.92;9.18;;;;;;;11.05;100.00;98417.03;5024736;28;20045;-63
2022/10/03 09:00:44;;;;;;;15.73;7.97;;;;;;;11.30;99.57;98430.47;5020692;28;20136;-63
2022/10/03 09:03:37;;;;;;;16.42;8.55;;;;;;;11.47;99.42;98423.56;5022570;28;20065;-63
2022/10/03 09:06:37;;;;;;;16.42;8.70;;;;;;;11.47;98.43;98426.28;5017952;28;20061;-63
2022/10/03 09:09:36;;;;;;;14.77;9.43;;;;;;;11.41;100.00;98423.44;5022699;28;20053;-63
2022/10/03 09:12:17;;;;;;;14.27;9.68;;;;;;;11.42;100.00;98422.38;5023137;28;20049;-63
2022/10/03 09:15:10;;;;;;;;;;;;;;;11.55;100.00;98413.22;5026026;28;20045;-63
2022/10/03 09:18:04;;;;;;;14.02;7.28;;;;;;;11.37;99.22;98415.97;5010149;28;19920;-63
2022/10/03 09:21:05;;;;;;;14.50;7.20;;;;;;;11.31;99.42;98409.59;5025247;28;20129;-63
2022/10/03 09:24:00;;;;;;;16.33;8.95;;;;;;;11.39;99.32;98408.47;5016387;28;20049;-63
2022/10/03 09:26:48;;;;;;;12.52;7.43;;;;;;;11.46;99.75;98409.16;5012086;28;20140;-63
2022/10/03 09:29:24;;;;;;;13.63;7.63;;;;;;;11.56;100.00;98408.59;5023904;28;20049;-63
2022/10/03 09:32:25;;;;;;;11.07;7.35;;;;;;;11.83;100.00;98409.00;5025390;28;20584;-64
2022/10/03 09:35:10;;;;;;;15.57;7.10;;;;;;;12.01;96.41;98409.94;5026942;28;20046;-63
2022/10/03 09:38:14;;;;;;;13.90;6.75;;;;;;;12.05;96.11;98405.72;5022684;28;20045;-63
2022/10/03 09:41:11;;;;;;;10.48;5.50;;;;;;;12.14;91.92;98402.66;5023658;28;20160;-63
2022/10/03 09:43:53;;;;;;;10.65;5.15;;;;;;;12.46;91.39;98397.66;5026085;28;20045;-63
2022/10/03 09:46:38;;;;;;;;;;;;;;;12.58;90.81;98394.13;5026618;28;20049;-63
2022/10/03 09:49:25;;;;;;;9.27;4.75;;;;;;;12.51;89.58;98402.41;5026161;28;20170;-63
2022/10/03 09:52:17;;;;;;;9.37;5.23;;;;;;;12.34;90.04;98397.69;5025679;28;20060;-63
2022/10/03 09:55:16;;;;;;;11.25;5.25;;;;;;;12.46;89.70;98396.88;5026433;28;20420;-64
2022/10/03 09:57:55;;;;;;;10.88;5.65;;;;;;;12.57;87.78;98401.44;5018402;28;20129;-63
2022/10/03 10:00:26;;;;;;;11.35;6.05;;;;;;;12.34;87.96;98400.41;5016431;28;20306;-63
2022/10/03 10:03:10;;;;;;;10.20;5.85;;;;;;;12.34;86.50;98396.84;5023746;28;20103;-63
2022/10/03 10:06:09;;;;;;;10.85;4.93;;;;;;;12.12;86.49;98402.09;5025501;28;20239;-63
2022/10/03 10:08:54;;;;;;;13.00;5.00;;;;;;;12.07;88.55;98400.06;5004916;28;20064;-63
2022/10/03 10:11:52;;;;;;;11.80;5.45;;;;;;;11.78;89.89;98403.47;5023930;28;20091;-63
2022/10/03 10:14:37;;;;;;;14.15;5.57;;;;;;;11.83;93.00;98414.44;5021217;28;20051;-63
2022/10/03 10:17:47;;;;;;;10.05;5.45;;;;;;;11.86;93.23;98404.19;5018365;28;20137;-63
2022/10/03 10:20:52;;;;;;;13.93;6.38;;;;;;;12.06;90.56;98415.53;5022538;28;20049;-63
2022/10/03 10:23:50;;;;;;;11.88;6.00;;;;;;;12.00;93.54;98413.72;5023785;28;20494;-63
2022/10/03 10:26:26;;;;;;;16.00;5.70;;;;;;;12.07;93.16;98416.38;5025180;28;20034;-63
2022/10/03 10:29:23;;;;;;;11.77;5.55;;;;;;;12.16;92.14;98414.94;5025427;28;20049;-63
2022/10/03 10:32:22;;;;;;;13.85;5.35;;;;;;;12.52;92.59;98403.19;5024821;28;20049;-63
2022/10/03 10:35:11;;;;;;;13.38;5.32;;;;;;;12.92;89.65;98407.00;5020130;28;20448;-63
2022/10/03 10:37:55;;;;;;;11.20;5.40;;;;;;;13.04;85.00;98407.78;5025485;28;20128;-64
2022/10/03 10:40:41;;;;;;;10.85;5.70;;;;;;;13.23;85.34;98410.31;5024249;28;20374;-63
2022/10/03 10:43:32;;;;;;;11.80;5.18;;;;;;;13.23;82.96;98419.28;5024815;28;20042;-63
2022/10/03 10:46:20;;;;;;;10.40;4.50;;;;;;;12.67;83.05;98406.25;5024782;28;20045;-64
2022/10/03 10:49:11;;;;;;;11.73;5.53;;;;;;;12.64;89.09;98411.34;5025592;28;20103;-63
2022/10/03 10:51:43;;;;;;;11.30;4.57;;;;;;;12.68;83.88;98401.66;5024657;28;20045;-63
2022/10/03 10:54:35;;;;;;;13.07;5.00;;;;;;;12.71;79.58;98406.59;5025245;28;20497;-63
2022/10/03 10:57:21;;;;;;;11.07;4.55;;;;;;;12.70;81.70;98396.78;5016616;28;20046;-63
2022/10/03 11:00:16;;;;;;;10.57;4.43;;;;;;;12.56;81.14;98391.63;5024212;28;20054;-63
2022/10/03 11:03:07;;;;;;;10.35;3.75;;;;;;;12.44;78.91;98397.09;5023270;28;20120;-63
2022/10/03 11:06:11;;;;;;;11.93;4.38;;;;;;;12.36;78.84;98395.56;5019293;28;20056;-63
2022/10/03 11:09:10;;;;;;;8.65;3.67;;;;;;;12.56;81.31;98388.06;5024916;28;20087;-64
2022/10/03 11:12:07;;;;;;;8.18;4.03;;;;;;;12.77;79.37;98383.06;5023068;28;20550;-63
2022/10/03 11:14:52;;;;;;;6.65;3.03;;;;;;;12.86;75.94;98382.44;5017484;28;20041;-63
2022/10/03 11:18:02;;;;;;;6.55;3.25;;;;;;;13.17;77.55;98376.78;5023300;28;20046;-63
2022/10/03 11:20:50;;;;;;;7.18;2.80;;;;;;;13.34;75.72;98375.97;5016695;28;20091;-64
2022/10/03 11:23:54;;;;;;;9.45;3.03;;;;;;;13.40;71.43;98385.88;5023017;28;20084;-64
2022/10/03 11:26:59;;;;;;;7.85;3.10;;;;;;;13.36;70.96;98377.38;5022945;28;20044;-64
2022/10/03 11:29:56;;;;;;;8.02;3.15;;;;;;;13.32;69.96;98389.81;5011233;28;20076;-64
2022/10/03 11:32:48;;;;;;;9.63;2.72;;;;;;;13.34;68.48;98386.84;5022559;28;20076;-64
2022/10/03 11:35:27;;;;;;;9.23;3.00;;;;;;;13.60;70.67;98376.44;5024053;28;20049;-64
2022/10/03 11:38:08;;;;;;;9.23;3.17;;;;;;;13.72;72.55;98381.78;5024251;28;20505;-63
2022/10/03 11:40:47;;;;;;;;;;;;;;;14.05;69.05;98383.66;5016644;28;20049;-64
2022/10/03 11:43:33;;;;;;;10.88;3.10;;;;;;;13.90;70.45;98384.25;5020974;28;20295;-63
2022/10/03 11:46:18;;;;;;;9.20;3.28;;;;;;;13.95;71.35;98385.41;5019363;28;20511;-63
2022/10/03 11:49:00;;;;;;;9.75;3.05;;;;;;;13.93;71.40;98379.41;5018307;28;20123;-63
2022/10/03 11:51:38;;;;;;;8.60;3.60;;;;;;;13.87;73.05;98382.03;5023523;28;20049;-63
2022/10/03 11:54:20;;;;;;;9.55;3.88;;;;;;;13.49;74.05;98384.41;5022192;28;20048;-63
2022/10/03 11:57:27;;;;;;;6.05;2.90;;;;;;;13.55;72.54;98382.59;5018815;28;20061;-64
2022/10/03 12:00:18;;;;;;;6.25;2.75;;;;;;;13.60;72.13;98382.69;5022849;28;20291;-63
2022/10/03 12:03:13;;;;;;;7.55;3.55;;;;;;;13.43;73.74;98374.50;5023143;28;20065;-63
2022/10/03 12:09:10;;;;;;;10.32;3.78;;;;;;;13.62;75.17;98368.84;5014578;28;20128;-63
2022/10/03 12:12:18;;;;;;;7.95;3.70;;;;;;;13.80;74.21;98373.22;5022202;28;20041;-64
2022/10/03 12:14:48;;;;;;;9.40;3.40;;;;;;;13.84;74.65;98366.19;5022743;28;20485;-64
2022/10/03 12:17:28;;;;;;;9.70;4.07;;;;;;;14.04;75.18;98367.56;5022904;28;20128;-63
2022/10/03 12:20:14;;;;;;;7.57;2.63;;;;;;;14.16;70.55;98364.75;5021754;28;20492;-63
2022/10/03 12:22:52;;;;;;;8.35;3.90;;;;;;;14.07;71.68;98361.63;5016546;28;20053;-62
2022/10/03 12:25:32;;;;;;;15.95;3.83;;;;;;;14.16;73.30;98354.66;5023167;28;20045;-62
2022/10/03 12:28:11;;;;;;;10.50;3.30;;;;;;;14.02;72.39;98359.66;5022013;28;20052;-63
2022/10/03 12:30:54;;;;;;;4.50;2.60;;;;;;;14.00;71.81;98356.34;5022905;28;20053;-63
2022/10/03 12:33:28;;;;;;;7.82;2.60;;;;;;;14.18;65.26;98347.09;5023480;28;20501;-63
2022/10/03 12:36:33;;;;;;;4.80;2.28;;;;;;;14.24;67.04;98344.41;5023456;28;20059;-63
2022/10/03 12:39:28;;;;;;;6.75;2.30;;;;;;;14.39;67.47;98350.06;5009249;28;20060;-63
2022/10/03 12:42:06;;;;;;;4.47;2.47;;;;;;;14.40;67.99;98343.53;5024165;28;20045;-63
2022/10/03 12:45:01;;;;;;;5.25;2.60;;;;;;;14.26;66.68;98345.00;5025272;28;20175;-63
2022/10/03 12:48:06;;;;;;;10.80;3.13;;;;;;;14.59;66.64;98340.50;5018091;28;20061;-62
2022/10/03 12:50:38;;;;;;;8.38;3.40;;;;;;;15.13;64.65;98338.09;5020740;28;20065;-64
2022/10/03 12:53:26;;;;;;;8.85;3.80;;;;;;;15.20;65.69;98325.91;5022723;28;20770;-64
2022/10/03 12:56:10;;;;;;;9.18;3.85;;;;;;;15.08;66.60;98339.69;5021884;28;20459;-65
2022/10/03 12:58:49;;;;;;;8.13;2.85;;;;;;;15.37;65.34;98333.13;5023550;28;20038;-65
2022/10/03 13:01:36;;;;;;;10.50;4.90;;;;;;;15.14;67.87;98334.31;5022696;28;20144;-63
2022/10/03 13:04:13;;;;;;;6.53;2.72;;;;;;;15.29;62.98;98328.97;5016896;28;20045;-65
2022/10/03 13:06:53;;;;;;;7.68;3.30;;;;;;;14.96;65.15;98319.91;5022193;28;20263;-65
2022/10/03 13:09:53;;;;;;;10.93;2.60;;;;;;;14.65;63.94;98311.41;5021850;28;20424;-64
2022/10/03 13:12:33;;;;;;;8.68;3.10;;;;;;;14.83;64.25;98318.44;5021153;28;20046;-65
2022/10/03 13:15:18;;;;;;;11.35;3.25;;;;;;;14.78;67.05;98321.13;5020789;28;20141;-64